createdAt,value
2023-09-29T00:03:05.762Z,17.45
2023-09-29T00:06:20.907Z,17.43
2023-09-29T00:09:29.654Z,17.43
2023-09-29T00:12:45.714Z,17.42
2023-09-29T00:15:56.747Z,17.36
2023-09-29T00:19:05.508Z,17.39
2023-09-29T00:22:20.658Z,17.36
2023-09-29T00:25:29.892Z,17.34
2023-09-29T00:28:38.677Z,17.29
2023-09-29T00:31:55.657Z,17.21
2023-09-29T00:34:58.742Z,17.15
2023-09-29T00:38:13.648Z,17.16
2023-09-29T00:41:29.037Z,17.18
2023-09-29T00:44:43.668Z,17.19
2023-09-29T00:48:00.726Z,17.18
2023-09-29T00:51:15.678Z,17.18
2023-09-29T00:54:24.677Z,17.16
2023-09-29T00:57:34.467Z,17.15
2023-09-29T01:00:50.679Z,17.14
2023-09-29T01:03:59.909Z,17.15
2023-09-29T01:07:15.026Z,17.14
2023-09-29T01:10:30.711Z,17.15
2023-09-29T01:13:45.700Z,17.07
2023-09-29T01:16:47.795Z,17.04
2023-09-29T01:20:02.697Z,17.01
2023-09-29T01:23:05.929Z,16.94
2023-09-29T01:26:20.698Z,16.86
2023-09-29T01:29:29.472Z,16.90
2023-09-29T01:32:45.763Z,16.87
2023-09-29T01:35:54.702Z,16.84
2023-09-29T01:39:09.737Z,16.80
2023-09-29T01:42:24.691Z,16.80
2023-09-29T01:45:39.738Z,16.77
2023-09-29T01:48:48.682Z,16.74
2023-09-29T01:52:03.707Z,16.72
2023-09-29T01:55:06.386Z,16.71
2023-09-29T01:58:21.710Z,16.67
2023-09-29T02:01:30.611Z,16.64
2023-09-29T02:04:45.716Z,16.69
2023-09-29T02:08:07.879Z,16.66
2023-09-29T02:11:16.711Z,16.64
2023-09-29T02:14:25.360Z,16.64
2023-09-29T02:17:33.752Z,16.68
2023-09-29T02:20:48.887Z,16.67
2023-09-29T02:23:50.932Z,16.60
2023-09-29T02:27:05.740Z,16.62
2023-09-29T02:30:08.675Z,16.61
2023-09-29T02:33:23.793Z,16.52
2023-09-29T02:36:32.493Z,16.49
2023-09-29T02:39:40.711Z,16.51
2023-09-29T02:42:49.506Z,16.47
2023-09-29T02:45:57.686Z,16.43
2023-09-29T02:49:12.687Z,16.42
2023-09-29T02:52:14.721Z,16.34
2023-09-29T02:55:32.623Z,16.32
2023-09-29T02:58:37.944Z,16.21
2023-09-29T03:01:52.673Z,16.21
2023-09-29T03:05:01.725Z,16.25
2023-09-29T03:08:23.688Z,16.27
2023-09-29T03:11:38.726Z,16.28
2023-09-29T03:14:47.720Z,16.25
2023-09-29T03:18:02.781Z,16.25
2023-09-29T03:21:11.513Z,16.23
2023-09-29T03:24:29.296Z,16.20
2023-09-29T03:27:39.555Z,16.09
2023-09-29T03:30:47.736Z,16.08
2023-09-29T03:33:56.576Z,16.06
2023-09-29T03:37:04.699Z,16.04
2023-09-29T03:40:20.705Z,16.02
2023-09-29T03:43:29.532Z,15.98
2023-09-29T03:46:44.769Z,16.00
2023-09-29T03:49:59.733Z,15.92
2023-09-29T03:53:08.637Z,15.97
2023-09-29T03:56:17.721Z,15.87
2023-09-29T03:59:32.722Z,15.96
2023-09-29T04:02:41.878Z,16.00
2023-09-29T04:05:56.763Z,16.01
2023-09-29T04:08:59.039Z,15.95
2023-09-29T04:12:13.739Z,15.85
2023-09-29T04:15:22.257Z,15.87
2023-09-29T04:18:30.993Z,15.86
2023-09-29T04:21:39.924Z,15.79
2023-09-29T04:24:54.714Z,15.80
2023-09-29T04:28:03.738Z,15.75
2023-09-29T04:31:12.452Z,15.74
2023-09-29T04:34:20.722Z,15.76
2023-09-29T04:37:35.695Z,15.70
2023-09-29T04:40:44.471Z,15.68
2023-09-29T04:43:52.722Z,15.66
2023-09-29T04:47:07.741Z,15.65
2023-09-29T04:50:22.725Z,15.64
2023-09-29T04:53:31.757Z,15.61
2023-09-29T04:56:46.788Z,15.61
2023-09-29T04:59:55.459Z,15.63
2023-09-29T05:03:03.859Z,15.55
2023-09-29T05:06:25.732Z,15.50
2023-09-29T05:09:36.368Z,15.59
2023-09-29T05:12:44.787Z,15.64
2023-09-29T05:15:59.720Z,15.67
2023-09-29T05:19:08.862Z,15.67
2023-09-29T05:22:17.771Z,15.71
2023-09-29T05:25:32.714Z,15.68
2023-09-29T05:28:47.716Z,15.76
2023-09-29T05:31:56.549Z,15.73
2023-09-29T05:35:12.722Z,15.82
2023-09-29T05:38:21.534Z,15.89
2023-09-29T05:41:36.808Z,15.96
2023-09-29T05:44:45.378Z,15.92
2023-09-29T05:47:54.124Z,16.01
2023-09-29T05:51:21.339Z,16.05
2023-09-29T05:54:23.476Z,16.08
2023-09-29T05:57:38.789Z,16.17
2023-09-29T06:00:47.739Z,16.24
2023-09-29T06:04:02.895Z,16.37
2023-09-29T06:07:18.010Z,16.47
2023-09-29T06:10:33.714Z,16.51
2023-09-29T06:13:48.784Z,16.59
2023-09-29T06:16:57.311Z,16.69
2023-09-29T06:20:05.726Z,16.79
2023-09-29T06:23:22.731Z,16.87
2023-09-29T06:26:31.320Z,16.96
2023-09-29T06:29:39.745Z,16.98
2023-09-29T06:32:48.317Z,17.10
2023-09-29T06:36:01.891Z,17.21
2023-09-29T06:39:16.808Z,17.26
2023-09-29T06:42:18.947Z,17.38
2023-09-29T06:45:56.896Z,17.46
2023-09-29T06:48:55.989Z,17.50
2023-09-29T06:52:10.796Z,17.59
2023-09-29T06:55:19.532Z,17.67
2023-09-29T06:58:27.808Z,17.80
2023-09-29T07:01:42.778Z,17.97
2023-09-29T07:04:44.725Z,18.10
2023-09-29T07:08:06.755Z,18.22
2023-09-29T07:11:21.784Z,18.37
2023-09-29T07:14:30.731Z,18.61
2023-09-29T07:17:45.811Z,18.85
2023-09-29T07:20:48.053Z,18.98
2023-09-29T07:24:02.814Z,19.19
2023-09-29T07:27:13.092Z,19.34
2023-09-29T07:30:27.911Z,19.52
2023-09-29T07:33:42.832Z,19.91
2023-09-29T07:36:57.758Z,20.10
2023-09-29T07:39:59.938Z,20.36
2023-09-29T07:43:14.797Z,20.69
2023-09-29T07:46:23.792Z,20.99
2023-09-29T07:49:38.768Z,20.99
2023-09-29T07:52:41.126Z,21.22
2023-09-29T07:55:55.760Z,21.48
2023-09-29T07:59:03.759Z,21.69
2023-09-29T08:02:12.337Z,22.02
2023-09-29T08:05:20.861Z,22.07
2023-09-29T08:08:36.785Z,22.18
2023-09-29T08:11:52.792Z,22.44
2023-09-29T08:14:54.844Z,22.81
2023-09-29T08:18:09.901Z,22.95
2023-09-29T08:21:18.870Z,23.14
2023-09-29T08:24:27.816Z,23.44
2023-09-29T08:27:43.762Z,23.66
2023-09-29T08:30:46.000Z,23.63
2023-09-29T08:34:00.851Z,23.77
2023-09-29T08:37:15.783Z,23.68
2023-09-29T08:40:24.756Z,23.61
2023-09-29T08:43:43.696Z,24.05
2023-09-29T08:46:59.628Z,24.12
2023-09-29T08:50:10.969Z,24.30
2023-09-29T08:53:26.776Z,24.43
2023-09-29T08:56:35.898Z,24.64
2023-09-29T08:59:52.971Z,24.94
2023-09-29T09:03:07.930Z,24.41
2023-09-29T09:06:31.820Z,24.88
2023-09-29T09:09:55.780Z,24.93
2023-09-29T09:13:12.768Z,25.23
2023-09-29T09:16:14.974Z,25.39
2023-09-29T09:19:32.799Z,25.28
2023-09-29T09:22:46.547Z,25.75
2023-09-29T09:25:55.826Z,25.79
2023-09-29T09:29:15.803Z,25.74
2023-09-29T09:32:28.255Z,25.78
2023-09-29T09:35:37.860Z,26.15
2023-09-29T09:38:46.745Z,25.92
2023-09-29T09:41:58.832Z,26.28
2023-09-29T09:45:07.872Z,26.22
2023-09-29T09:48:25.890Z,26.20
2023-09-29T09:51:40.339Z,26.39
2023-09-29T09:54:55.807Z,26.50
2023-09-29T09:58:11.815Z,26.34
2023-09-29T10:01:19.864Z,26.59
2023-09-29T10:04:35.856Z,26.61
2023-09-29T10:07:48.827Z,26.77
2023-09-29T10:11:18.845Z,26.97
2023-09-29T10:14:26.810Z,27.01
2023-09-29T10:17:45.864Z,26.67
2023-09-29T10:21:00.943Z,26.98
2023-09-29T10:24:09.836Z,27.27
2023-09-29T10:27:39.862Z,27.05
2023-09-29T10:30:50.798Z,27.28
2023-09-29T10:34:00.083Z,27.25
2023-09-29T10:37:15.815Z,26.99
2023-09-29T10:40:34.005Z,27.23
2023-09-29T10:43:52.816Z,27.16
2023-09-29T10:46:55.277Z,26.99
2023-09-29T10:50:14.874Z,27.09
2023-09-29T10:53:29.822Z,27.00
2023-09-29T10:56:45.836Z,26.99
2023-09-29T10:59:55.835Z,27.20
2023-09-29T11:03:11.931Z,27.38
2023-09-29T11:06:27.846Z,27.14
2023-09-29T11:09:43.118Z,27.66
2023-09-29T11:12:57.854Z,27.66
2023-09-29T11:16:01.185Z,27.83
2023-09-29T11:19:20.850Z,27.46
2023-09-29T11:22:29.687Z,27.65
2023-09-29T11:25:38.918Z,27.70
2023-09-29T11:28:55.876Z,27.94
2023-09-29T11:32:04.898Z,27.97
2023-09-29T11:35:13.909Z,27.95
2023-09-29T11:38:28.843Z,27.99
2023-09-29T11:41:30.670Z,28.05
2023-09-29T11:44:46.164Z,28.07
2023-09-29T11:48:00.980Z,27.84
2023-09-29T11:51:03.052Z,27.83
2023-09-29T11:54:17.943Z,27.90
2023-09-29T11:57:26.857Z,27.81
2023-09-29T12:00:35.855Z,27.75
2023-09-29T12:03:50.904Z,27.66
2023-09-29T12:06:53.047Z,27.73
2023-09-29T12:10:15.862Z,27.79
2023-09-29T12:13:18.055Z,27.83
2023-09-29T12:16:32.904Z,27.62
2023-09-29T12:19:34.764Z,27.67
2023-09-29T12:22:50.877Z,27.72
2023-09-29T12:26:00.993Z,27.82
2023-09-29T12:29:10.918Z,27.91
2023-09-29T12:32:19.745Z,28.00
2023-09-29T12:35:27.900Z,27.99
2023-09-29T12:38:42.970Z,27.75
2023-09-29T12:41:51.766Z,27.72
2023-09-29T12:45:06.942Z,27.62
2023-09-29T12:48:22.060Z,27.50
2023-09-29T12:51:32.220Z,27.33
2023-09-29T12:54:50.984Z,27.42
2023-09-29T12:58:06.340Z,27.33
2023-09-29T13:01:20.919Z,27.52
2023-09-29T13:04:30.002Z,27.29
2023-09-29T13:07:47.887Z,27.20
2023-09-29T13:11:09.878Z,27.34
2023-09-29T13:14:11.995Z,27.32
2023-09-29T13:17:27.038Z,27.28
2023-09-29T13:20:35.695Z,27.08
2023-09-29T13:23:51.915Z,27.19
2023-09-29T13:27:06.883Z,27.13
2023-09-29T13:30:15.793Z,27.14
2023-09-29T13:33:24.924Z,26.95
2023-09-29T13:36:40.005Z,26.94
2023-09-29T13:39:54.888Z,26.86
2023-09-29T13:42:57.120Z,26.87
2023-09-29T13:46:12.930Z,26.71
2023-09-29T13:49:21.474Z,26.62
2023-09-29T13:52:29.922Z,26.62
2023-09-29T13:55:44.903Z,26.57
2023-09-29T13:58:47.090Z,26.55
2023-09-29T14:02:01.900Z,26.39
2023-09-29T14:05:16.894Z,26.31
2023-09-29T14:08:31.912Z,26.27
2023-09-29T14:11:40.540Z,26.33
2023-09-29T14:14:48.953Z,26.30
2023-09-29T14:17:58.224Z,26.35
2023-09-29T14:21:12.951Z,26.40
2023-09-29T14:24:21.564Z,26.48
2023-09-29T14:27:29.958Z,26.55
2023-09-29T14:30:38.741Z,26.46
2023-09-29T14:33:46.948Z,26.46
2023-09-29T14:37:01.905Z,26.47
2023-09-29T14:40:04.295Z,26.55
2023-09-29T14:43:18.955Z,26.53
2023-09-29T14:46:27.938Z,26.50
2023-09-29T14:49:42.939Z,26.47
2023-09-29T14:52:52.194Z,26.39
2023-09-29T14:56:15.917Z,26.30
2023-09-29T14:59:31.926Z,26.19
2023-09-29T15:02:40.503Z,26.05
2023-09-29T15:05:48.978Z,25.96
2023-09-29T15:09:10.990Z,25.81
2023-09-29T15:12:22.511Z,25.62
2023-09-29T15:15:33.006Z,25.54
2023-09-29T15:18:52.280Z,25.45
2023-09-29T15:22:07.934Z,25.32
2023-09-29T15:25:16.978Z,25.17
2023-09-29T15:28:31.942Z,25.00
2023-09-29T15:31:40.976Z,24.86
2023-09-29T15:34:50.014Z,24.73
2023-09-29T15:38:04.958Z,24.57
2023-09-29T15:41:08.173Z,24.40
2023-09-29T15:44:26.002Z,24.12
2023-09-29T15:47:34.966Z,23.96
2023-09-29T15:50:43.963Z,23.80
2023-09-29T15:53:52.994Z,23.65
2023-09-29T15:57:08.015Z,23.56
2023-09-29T16:00:17.142Z,23.36
2023-09-29T16:03:26.057Z,23.15
2023-09-29T16:06:47.945Z,23.07
2023-09-29T16:10:03.979Z,22.91
2023-09-29T16:13:18.962Z,22.79
2023-09-29T16:16:34.018Z,22.64
2023-09-29T16:19:42.832Z,22.47
2023-09-29T16:22:57.946Z,22.25
2023-09-29T16:26:05.955Z,22.12
2023-09-29T16:29:20.975Z,22.01
2023-09-29T16:32:31.894Z,21.86
2023-09-29T16:35:47.935Z,21.77
2023-09-29T16:38:49.838Z,21.68
2023-09-29T16:42:04.956Z,21.51
2023-09-29T16:45:07.930Z,21.38
2023-09-29T16:48:23.059Z,21.27
2023-09-29T16:51:37.959Z,21.02
2023-09-29T16:54:46.800Z,20.91
2023-09-29T16:58:01.995Z,20.79
2023-09-29T17:01:13.388Z,20.68
2023-09-29T17:04:28.008Z,20.57
2023-09-29T17:07:49.970Z,20.50
2023-09-29T17:10:58.737Z,20.32
2023-09-29T17:14:13.974Z,20.26
2023-09-29T17:17:22.894Z,20.13
2023-09-29T17:20:37.957Z,19.99
2023-09-29T17:23:40.224Z,19.92
2023-09-29T17:26:54.955Z,19.86
2023-09-29T17:30:11.254Z,19.83
2023-09-29T17:33:13.901Z,19.71
2023-09-29T17:36:29.348Z,19.69
2023-09-29T17:39:38.994Z,19.54
2023-09-29T17:42:55.000Z,19.43
2023-09-29T17:46:12.992Z,19.46
2023-09-29T17:49:22.501Z,19.37
2023-09-29T17:52:32.307Z,19.25
2023-09-29T17:55:41.230Z,19.26
2023-09-29T17:58:52.333Z,19.12
2023-09-29T18:02:08.105Z,19.06
2023-09-29T18:05:17.919Z,19.01
2023-09-29T18:08:34.130Z,19.04
2023-09-29T18:11:50.967Z,18.98
2023-09-29T18:15:08.334Z,18.90
2023-09-29T18:18:19.139Z,18.83
2023-09-29T18:21:29.520Z,18.83
2023-09-29T18:24:46.069Z,18.76
2023-09-29T18:27:49.848Z,18.62
2023-09-29T18:31:07.567Z,18.57
2023-09-29T18:34:18.457Z,18.45
2023-09-29T18:37:28.332Z,18.41
2023-09-29T18:40:37.996Z,18.38
2023-09-29T18:43:50.087Z,18.35
2023-09-29T18:47:00.219Z,18.37
2023-09-29T18:50:10.778Z,18.34
2023-09-29T18:53:28.624Z,18.32
2023-09-29T18:56:38.986Z,18.29
2023-09-29T18:59:57.577Z,18.22
2023-09-29T19:03:01.826Z,18.19
2023-09-29T19:06:19.173Z,18.23
2023-09-29T19:09:30.119Z,18.22
2023-09-29T19:12:51.486Z,18.13
2023-09-29T19:16:12.561Z,17.89
2023-09-29T19:19:23.546Z,17.75
2023-09-29T19:22:35.518Z,17.72
2023-09-29T19:25:52.562Z,17.74
2023-09-29T19:29:11.094Z,17.77
2023-09-29T19:32:15.792Z,17.78
2023-09-29T19:35:33.536Z,17.75
2023-09-29T19:38:51.016Z,17.69
2023-09-29T19:42:08.076Z,17.59
2023-09-29T19:45:25.064Z,17.59
2023-09-29T19:48:35.261Z,17.65
2023-09-29T19:51:53.588Z,17.70
2023-09-29T19:55:05.305Z,17.67
2023-09-29T19:58:16.525Z,17.59
2023-09-29T20:01:33.136Z,17.52
2023-09-29T20:04:45.389Z,17.49
2023-09-29T20:08:04.887Z,17.39
2023-09-29T20:11:15.776Z,17.42
2023-09-29T20:14:26.010Z,17.40
2023-09-29T20:17:42.076Z,17.37
2023-09-29T20:20:51.379Z,17.37
2023-09-29T20:24:01.073Z,17.29
2023-09-29T20:27:10.195Z,17.22
2023-09-29T20:30:26.089Z,17.21
2023-09-29T20:33:28.515Z,17.18
2023-09-29T20:36:43.061Z,17.12
2023-09-29T20:39:52.072Z,17.08
2023-09-29T20:43:00.949Z,17.02
2023-09-29T20:46:17.044Z,17.05
2023-09-29T20:49:19.463Z,16.85
2023-09-29T20:52:35.022Z,16.84
2023-09-29T20:55:44.136Z,16.72
2023-09-29T20:58:53.036Z,16.71
2023-09-29T21:02:08.017Z,16.79
2023-09-29T21:05:16.874Z,16.77
2023-09-29T21:08:26.069Z,16.39
2023-09-29T21:11:34.886Z,16.59
2023-09-29T21:14:50.054Z,16.56
2023-09-29T21:18:05.115Z,16.58
2023-09-29T21:21:13.928Z,16.59
2023-09-29T21:24:29.092Z,16.60
2023-09-29T21:27:38.036Z,16.55
2023-09-29T21:30:53.031Z,16.45
2023-09-29T21:34:02.055Z,16.36
2023-09-29T21:37:17.046Z,16.38
2023-09-29T21:40:32.021Z,16.36
2023-09-29T21:43:40.842Z,16.38
2023-09-29T21:46:56.029Z,16.24
2023-09-29T21:50:05.039Z,16.22
2023-09-29T21:53:20.021Z,16.15
2023-09-29T21:56:22.182Z,16.13
2023-09-29T21:59:37.069Z,16.12
2023-09-29T22:02:46.122Z,16.16
2023-09-29T22:06:01.081Z,16.12
2023-09-29T22:09:09.308Z,16.11
2023-09-29T22:12:24.057Z,16.07
2023-09-29T22:15:32.974Z,16.02
2023-09-29T22:18:48.079Z,15.99
2023-09-29T22:22:03.045Z,15.91
2023-09-29T22:25:06.789Z,15.99
2023-09-29T22:28:23.054Z,15.98
2023-09-29T22:31:25.290Z,15.99
2023-09-29T22:34:40.055Z,15.95
2023-09-29T22:37:49.085Z,15.96
2023-09-29T22:40:57.806Z,15.95
2023-09-29T22:44:06.076Z,15.97
2023-09-29T22:47:14.844Z,15.96
2023-09-29T22:50:24.067Z,15.70
2023-09-29T22:53:33.107Z,15.55
2023-09-29T22:56:42.101Z,15.66
2023-09-29T22:59:50.857Z,15.75
2023-09-29T23:03:06.165Z,15.79
2023-09-29T23:06:21.098Z,15.76
2023-09-29T23:09:36.322Z,15.73
2023-09-29T23:12:51.033Z,15.69
2023-09-29T23:15:53.211Z,15.55
2023-09-29T23:19:08.026Z,15.63
2023-09-29T23:22:17.065Z,15.66
2023-09-29T23:25:32.038Z,15.56
2023-09-29T23:28:41.139Z,15.54
2023-09-29T23:31:56.056Z,15.58
2023-09-29T23:34:58.616Z,15.58
2023-09-29T23:38:14.063Z,15.54
2023-09-29T23:41:29.050Z,15.48
2023-09-29T23:44:44.062Z,15.42
2023-09-29T23:47:53.102Z,15.33
2023-09-29T23:51:09.159Z,15.24
2023-09-29T23:54:18.106Z,15.12
2023-09-29T23:57:34.131Z,15.21
